Time;durP1;ratioP1;P1;durP2;ratioP2;P2;SDS_P1;SDS_P2;PMS_P1;PMS_P2;Temp;Humidity;BMP_temperature;BMP_pressure;BME280_temperature;BME280_humidity;BME280_pressure;Samples;Min_cycle;Max_cycle;Signal;HPM_P1;HPM_P2
2024/03/22 00:02:02;;;;;;;1.80;1.27;;;13.30;68.40;;;;;;5052126;28;20068;-76
2024/03/22 00:04:29;;;;;;;2.67;1.48;;;13.30;68.70;;;;;;5035995;28;20033;-69
2024/03/22 00:06:55;;;;;;;;;;;13.30;68.50;;;;;;5053352;28;20550;-69
2024/03/22 00:09:21;;;;;;;1.20;0.90;;;13.30;68.70;;;;;;5052534;28;19913;-69
2024/03/22 00:11:47;;;;;;;0.98;0.70;;;13.30;68.20;;;;;;5052060;28;20041;-75
2024/03/22 00:14:13;;;;;;;1.38;0.75;;;13.30;68.70;;;;;;5052223;28;20098;-69
2024/03/22 00:16:39;;;;;;;0.90;0.63;;;13.30;68.10;;;;;;5035084;28;20044;-76
2024/03/22 00:19:05;;;;;;;;;;;13.30;67.70;;;;;;5054013;28;20037;-76
2024/03/22 00:21:31;;;;;;;0.30;0.30;;;13.30;68.00;;;;;;5051691;28;19923;-76
2024/03/22 00:23:58;;;;;;;0.45;0.45;;;13.30;67.60;;;;;;5035413;28;20516;-76
2024/03/22 00:26:24;;;;;;;2.72;1.33;;;13.30;67.10;;;;;;5036032;28;20107;-70
2024/03/22 00:28:50;;;;;;;3.53;0.93;;;13.20;67.20;;;;;;5052945;28;20037;-70
2024/03/22 00:31:17;;;;;;;1.65;1.23;;;13.30;68.10;;;;;;5053637;28;20037;-75
2024/03/22 00:33:43;;;;;;;1.90;0.90;;;13.20;67.80;;;;;;5052838;28;20087;-76
2024/03/22 00:36:10;;;;;;;1.08;0.63;;;13.20;68.10;;;;;;5052871;28;20132;-75
2024/03/22 00:38:36;;;;;;;1.38;0.65;;;13.10;67.90;;;;;;5054368;28;20040;-76
2024/03/22 00:41:02;;;;;;;1.20;0.73;;;13.10;67.90;;;;;;5053119;28;20043;-69
2024/03/22 00:43:28;;;;;;;;;;;13.10;68.10;;;;;;5053197;28;20063;-76
2024/03/22 00:45:54;;;;;;;1.13;0.73;;;13.20;68.50;;;;;;5053701;28;19925;-75
2024/03/22 00:48:20;;;;;;;;;;;13.10;67.80;;;;;;5054647;28;20092;-76
2024/03/22 00:50:46;;;;;;;2.70;1.40;;;13.20;68.20;;;;;;5051956;28;20178;-76
2024/03/22 00:53:12;;;;;;;1.75;0.70;;;13.20;67.50;;;;;;5054136;28;20437;-70
2024/03/22 00:55:38;;;;;;;;;;;13.20;67.40;;;;;;5036237;28;20040;-75
2024/03/22 00:58:04;;;;;;;2.67;1.45;;;13.20;67.40;;;;;;5051990;28;19924;-75
2024/03/22 01:00:30;;;;;;;2.00;1.10;;;13.20;66.90;;;;;;5052900;28;20033;-75
2024/03/22 01:02:56;;;;;;;3.45;1.88;;;13.20;67.00;;;;;;5052215;28;20048;-69
2024/03/22 01:05:23;;;;;;;1.40;0.82;;;13.20;67.20;;;;;;5052183;28;20094;-70
2024/03/22 01:07:49;;;;;;;2.40;1.42;;;13.20;67.50;;;;;;5051392;28;20135;-70
2024/03/22 01:10:15;;;;;;;2.58;1.00;;;13.20;67.60;;;;;;5034119;28;20093;-70
2024/03/22 01:12:41;;;;;;;2.05;1.08;;;13.30;67.70;;;;;;5052869;28;20033;-69
2024/03/22 01:15:09;;;;;;;1.80;1.63;;;13.20;67.70;;;;;;5051550;28;20080;-76
2024/03/22 01:17:35;;;;;;;2.17;0.57;;;13.30;67.00;;;;;;5051968;28;20120;-75
2024/03/22 01:20:01;;;;;;;1.80;1.05;;;13.30;67.40;;;;;;5051866;28;20037;-75
2024/03/22 01:22:27;;;;;;;;;;;13.20;66.80;;;;;;5051840;28;20108;-75
2024/03/22 01:24:53;;;;;;;0.85;0.52;;;13.30;67.30;;;;;;5051845;28;19919;-70
2024/03/22 01:27:20;;;;;;;3.47;0.75;;;13.30;66.70;;;;;;5051066;28;20108;-76
2024/03/22 01:29:47;;;;;;;2.20;0.63;;;13.30;66.60;;;;;;5051244;28;20037;-70
2024/03/22 01:32:14;;;;;;;1.35;0.73;;;13.30;66.80;;;;;;5051040;28;20597;-75
2024/03/22 01:34:40;;;;;;;0.60;0.52;;;13.30;66.50;;;;;;5050707;28;20053;-75
2024/03/22 01:37:06;;;;;;;1.20;0.68;;;13.30;66.80;;;;;;5050834;28;20397;-75
2024/03/22 01:39:32;;;;;;;0.30;0.30;;;13.30;66.30;;;;;;5051251;28;20548;-69
2024/03/22 01:41:58;;;;;;;0.55;0.32;;;13.30;67.30;;;;;;5050226;28;20037;-76
2024/03/22 01:44:43;;;;;;;0.38;0.32;;;13.20;67.40;;;;;;5051027;28;20505;-70
2024/03/22 01:47:09;;;;;;;0.45;0.40;;;13.20;67.20;;;;;;5051372;28;20487;-76
2024/03/22 01:49:35;;;;;;;1.27;0.65;;;13.20;67.10;;;;;;5052196;28;20037;-75
2024/03/22 01:52:03;;;;;;;2.58;1.65;;;13.20;67.10;;;;;;5050037;28;20510;-75
2024/03/22 01:54:29;;;;;;;0.88;0.77;;;13.10;67.30;;;;;;5051562;28;20256;-75
2024/03/22 01:56:56;;;;;;;1.90;1.08;;;13.10;67.30;;;;;;5050200;28;20530;-75
2024/03/22 01:59:23;;;;;;;1.23;0.45;;;13.10;67.00;;;;;;5051900;28;20055;-75
2024/03/22 02:01:50;;;;;;;1.05;0.68;;;13.00;67.30;;;;;;5051428;28;20052;-69
2024/03/22 02:04:16;;;;;;;3.70;0.63;;;13.00;67.20;;;;;;5050278;28;20078;-75
2024/03/22 02:06:42;;;;;;;3.00;0.60;;;12.90;68.30;;;;;;5050273;28;20037;-69
2024/03/22 02:09:11;;;;;;;1.95;0.73;;;12.90;68.30;;;;;;5051468;28;20033;-75
2024/03/22 02:11:37;;;;;;;1.63;0.65;;;12.90;68.30;;;;;;5034185;28;20488;-69
2024/03/22 02:14:03;;;;;;;1.30;0.88;;;12.80;68.00;;;;;;5050812;28;20421;-76
2024/03/22 02:16:30;;;;;;;;;;;12.90;68.20;;;;;;5052757;28;20082;-69
2024/03/22 02:18:56;;;;;;;2.28;1.15;;;12.90;67.80;;;;;;5050740;28;20011;-70
2024/03/22 02:21:22;;;;;;;3.20;1.25;;;12.90;68.10;;;;;;5051586;28;20098;-70
2024/03/22 02:23:48;;;;;;;2.22;1.00;;;12.90;67.80;;;;;;5050732;28;20029;-69
2024/03/22 02:26:14;;;;;;;0.75;0.38;;;12.90;68.50;;;;;;5050630;28;20486;-69
2024/03/22 02:28:40;;;;;;;2.35;1.58;;;12.90;68.40;;;;;;5050763;28;20041;-70
2024/03/22 02:31:06;;;;;;;3.38;1.85;;;12.80;68.50;;;;;;5050378;28;20047;-69
2024/03/22 02:33:32;;;;;;;5.85;1.02;;;12.80;68.50;;;;;;5051872;28;20045;-69
2024/03/22 02:35:58;;;;;;;1.63;0.60;;;12.80;68.40;;;;;;5050177;28;20036;-69
2024/03/22 02:38:24;;;;;;;1.25;0.93;;;12.80;68.40;;;;;;5051264;28;20041;-76
2024/03/22 02:40:52;;;;;;;2.88;1.40;;;12.80;68.70;;;;;;5049187;28;20449;-70
2024/03/22 02:43:20;;;;;;;2.72;1.48;;;12.80;68.70;;;;;;5049622;28;20047;-70
2024/03/22 02:45:47;;;;;;;1.05;0.55;;;12.80;68.80;;;;;;5049836;28;20032;-69
2024/03/22 02:48:13;;;;;;;0.30;0.17;;;12.70;68.30;;;;;;5050490;28;20045;-70
2024/03/22 02:50:39;;;;;;;0.35;0.30;;;12.70;69.00;;;;;;5051230;28;20041;-75
2024/03/22 02:53:06;;;;;;;;;;;12.70;69.10;;;;;;5052528;28;20033;-75
2024/03/22 02:55:51;;;;;;;0.73;0.28;;;12.70;68.70;;;;;;5051505;28;20008;-69
2024/03/22 02:58:20;;;;;;;1.98;1.10;;;12.70;68.70;;;;;;5050530;28;20048;-69
2024/03/22 03:00:47;;;;;;;1.48;1.20;;;12.60;68.60;;;;;;5049899;28;20052;-75
2024/03/22 03:03:13;;;;;;;3.15;1.67;;;12.60;69.10;;;;;;5033816;28;20045;-69
2024/03/22 03:05:41;;;;;;;1.70;0.80;;;12.60;69.40;;;;;;5051373;28;20048;-75
2024/03/22 03:08:07;;;;;;;0.73;0.50;;;12.60;69.30;;;;;;5051781;28;20409;-69
2024/03/22 03:10:33;;;;;;;0.63;0.63;;;12.60;69.10;;;;;;5049118;28;20044;-76
2024/03/22 03:12:59;;;;;;;2.13;1.88;;;12.60;69.40;;;;;;5049726;28;20033;-69
2024/03/22 03:15:25;;;;;;;2.28;1.08;;;12.60;69.70;;;;;;5049385;28;20482;-75
2024/03/22 03:17:51;;;;;;;1.25;0.88;;;12.60;69.40;;;;;;5049405;28;20037;-75
2024/03/22 03:20:17;;;;;;;1.88;1.35;;;12.50;69.70;;;;;;5048852;28;20061;-76
2024/03/22 03:22:44;;;;;;;1.42;1.05;;;12.50;69.60;;;;;;5049560;28;20041;-69
2024/03/22 03:25:10;;;;;;;2.05;1.33;;;12.50;69.50;;;;;;5050719;28;20112;-69
2024/03/22 03:27:36;;;;;;;1.58;0.70;;;12.50;69.70;;;;;;5050065;28;20553;-76
2024/03/22 03:30:03;;;;;;;1.23;0.90;;;12.50;69.90;;;;;;5051092;28;20111;-75
2024/03/22 03:32:29;;;;;;;1.00;0.75;;;12.40;69.80;;;;;;5051055;28;20286;-75
2024/03/22 03:34:55;;;;;;;1.35;0.82;;;12.50;70.00;;;;;;5050641;28;20025;-75
2024/03/22 03:37:21;;;;;;;0.75;0.52;;;12.40;70.10;;;;;;5050759;28;20045;-69
2024/03/22 03:39:47;;;;;;;;;;;12.30;69.50;;;;;;5050969;28;20033;-69
2024/03/22 03:42:13;;;;;;;2.00;0.75;;;12.30;70.60;;;;;;5049999;28;19923;-75
2024/03/22 03:44:41;;;;;;;1.70;1.02;;;12.30;70.30;;;;;;5032452;28;20025;-69
2024/03/22 03:47:07;;;;;;;2.42;1.33;;;12.30;71.00;;;;;;5050688;28;20034;-70
2024/03/22 03:49:34;;;;;;;2.60;0.80;;;12.20;70.00;;;;;;5050239;28;20087;-69
2024/03/22 03:52:00;;;;;;;1.23;0.70;;;12.20;70.50;;;;;;5052825;28;20090;-75
2024/03/22 03:54:26;;;;;;;1.50;0.57;;;12.20;70.70;;;;;;5054423;28;20041;-70
2024/03/22 03:56:52;;;;;;;3.97;1.20;;;12.10;70.50;;;;;;5053400;28;20037;-69
2024/03/22 03:59:18;;;;;;;2.50;1.48;;;12.10;70.40;;;;;;5053246;28;20037;-69
2024/03/22 04:01:44;;;;;;;1.85;0.80;;;12.10;70.30;;;;;;5052761;28;20051;-69
2024/03/22 04:04:10;;;;;;;1.73;1.48;;;12.00;70.10;;;;;;5054354;28;20029;-69
2024/03/22 04:06:36;;;;;;;0.93;0.38;;;12.00;70.60;;;;;;5054092;28;20044;-75
2024/03/22 04:09:02;;;;;;;1.02;0.70;;;11.90;70.60;;;;;;5052474;28;20082;-76
2024/03/22 04:11:29;;;;;;;1.48;1.02;;;11.90;70.60;;;;;;5051914;28;20065;-75
2024/03/22 04:13:55;;;;;;;1.02;0.63;;;11.90;70.40;;;;;;5053554;28;20072;-69
2024/03/22 04:16:21;;;;;;;2.63;1.25;;;11.90;70.20;;;;;;5053971;28;20066;-69
2024/03/22 04:18:47;;;;;;;2.72;1.67;;;11.90;70.20;;;;;;5053801;28;20033;-76
2024/03/22 04:21:13;;;;;;;2.08;1.73;;;11.90;70.50;;;;;;5035186;28;20102;-69
2024/03/22 04:23:39;;;;;;;0.52;0.43;;;11.90;70.70;;;;;;5052476;28;20494;-74
2024/03/22 04:26:05;;;;;;;1.83;1.55;;;11.90;70.60;;;;;;5035314;28;20045;-69
2024/03/22 04:28:31;;;;;;;1.50;0.95;;;11.80;70.30;;;;;;5052239;28;20040;-76
2024/03/22 04:31:16;;;;;;;2.53;1.27;;;11.80;70.70;;;;;;5052090;28;20056;-69
2024/03/22 04:33:42;;;;;;;2.03;1.10;;;11.80;70.70;;;;;;5052080;28;20502;-75
2024/03/22 04:36:11;;;;;;;2.92;1.75;;;11.70;70.90;;;;;;5053280;28;20032;-76
2024/03/22 04:38:38;;;;;;;2.50;0.68;;;11.70;71.00;;;;;;5053558;28;20114;-69
2024/03/22 04:41:04;;;;;;;2.22;1.60;;;11.70;71.10;;;;;;5052631;28;20037;-69
2024/03/22 04:43:30;;;;;;;1.10;0.65;;;11.70;70.40;;;;;;5052876;28;20033;-69
2024/03/22 04:45:56;;;;;;;2.72;1.45;;;11.70;71.00;;;;;;5053147;28;20044;-76
2024/03/22 04:48:23;;;;;;;1.10;0.40;;;11.70;70.40;;;;;;5052098;28;20482;-69
2024/03/22 04:50:51;;;;;;;2.40;0.85;;;11.70;70.20;;;;;;5051294;28;20522;-75
2024/03/22 04:53:18;;;;;;;2.25;1.40;;;11.70;70.10;;;;;;5051908;28;20398;-70
2024/03/22 04:55:45;;;;;;;2.15;1.60;;;11.70;70.10;;;;;;5034784;28;20048;-70
2024/03/22 04:58:29;;;;;;;3.80;2.47;;;11.70;70.10;;;;;;5051681;28;20056;-76
2024/03/22 05:01:14;;;;;;;1.80;1.58;;;11.60;70.30;;;;;;5052347;28;20037;-75
2024/03/22 05:03:41;;;;;;;2.08;1.42;;;11.60;70.10;;;;;;5053053;28;20040;-69
2024/03/22 05:06:07;;;;;;;1.17;0.75;;;11.60;70.00;;;;;;5052615;28;20067;-75
2024/03/22 05:08:33;;;;;;;;;;;11.50;69.30;;;;;;5052115;28;20394;-70
2024/03/22 05:10:59;;;;;;;2.67;0.98;;;11.50;70.20;;;;;;5051944;28;20003;-71
2024/03/22 05:13:25;;;;;;;2.58;2.00;;;11.50;69.90;;;;;;5052463;28;20041;-69
2024/03/22 05:15:51;;;;;;;2.30;1.13;;;11.50;69.80;;;;;;5052641;28;20037;-75
2024/03/22 05:18:17;;;;;;;2.45;1.05;;;11.50;69.70;;;;;;5051314;28;20094;-75
2024/03/22 05:20:43;;;;;;;1.08;0.60;;;11.50;69.80;;;;;;5051849;28;20045;-69
2024/03/22 05:23:09;;;;;;;0.20;0.20;;;11.50;69.70;;;;;;5051324;28;20041;-76
2024/03/22 05:25:35;;;;;;;1.05;0.95;;;11.50;69.80;;;;;;5050788;28;20033;-75
2024/03/22 05:28:01;;;;;;;1.80;1.17;;;11.50;70.00;;;;;;5052778;28;20037;-76
2024/03/22 05:30:27;;;;;;;;;;;11.50;70.20;;;;;;5052158;28;20072;-70
2024/03/22 05:32:53;;;;;;;0.52;0.35;;;11.50;70.50;;;;;;5052280;28;19921;-76
2024/03/22 05:35:19;;;;;;;1.05;0.75;;;11.50;70.10;;;;;;5050919;28;20029;-74
2024/03/22 05:37:46;;;;;;;1.67;1.08;;;11.50;70.20;;;;;;5052224;28;20056;-70
2024/03/22 05:40:12;;;;;;;4.18;1.88;;;11.50;70.20;;;;;;5050196;28;20036;-76
2024/03/22 05:42:38;;;;;;;1.75;1.20;;;11.50;69.40;;;;;;5050723;28;20047;-69
2024/03/22 05:45:05;;;;;;;2.40;1.35;;;11.60;69.80;;;;;;5050796;28;20041;-76
2024/03/22 05:47:32;;;;;;;5.00;1.42;;;11.60;69.60;;;;;;5052129;28;20493;-69
2024/03/22 05:49:59;;;;;;;5.53;1.70;;;11.60;69.90;;;;;;5050747;28;20029;-75
2024/03/22 05:52:25;;;;;;;1.65;1.27;;;11.70;69.60;;;;;;5033505;28;20033;-70
2024/03/22 05:54:51;;;;;;;;;;;11.70;68.90;;;;;;5052532;28;20053;-70
2024/03/22 05:57:17;;;;;;;2.08;0.90;;;11.80;69.40;;;;;;5033787;28;20007;-75
2024/03/22 05:59:44;;;;;;;3.03;1.63;;;11.80;68.40;;;;;;5050503;28;20040;-76
2024/03/22 06:02:09;;;;;;;;;;;11.90;69.00;;;;;;5051987;28;20067;-70
2024/03/22 06:04:36;;;;;;;3.25;1.63;;;11.90;69.00;;;;;;5050198;28;20011;-69
2024/03/22 06:07:04;;;;;;;;;;;11.90;68.90;;;;;;5051089;28;20079;-70
2024/03/22 06:09:45;;;;;;;12.00;4.18;;;12.00;68.90;;;;;;5050157;28;19963;-69
2024/03/22 06:12:13;;;;;;;3.60;0.93;;;12.00;68.50;;;;;;5051161;28;20091;-76
2024/03/22 06:14:40;;;;;;;1.38;1.08;;;12.00;68.60;;;;;;5049494;28;20116;-76
2024/03/22 06:17:07;;;;;;;2.67;1.42;;;12.10;68.60;;;;;;5050224;28;20029;-69
2024/03/22 06:19:33;;;;;;;;;;;12.20;68.00;;;;;;5051961;28;20060;-69
2024/03/22 06:21:59;;;;;;;2.22;1.17;;;12.30;68.90;;;;;;5050909;28;19921;-75
2024/03/22 06:24:25;;;;;;;2.20;1.13;;;12.30;68.40;;;;;;5051180;28;20037;-76
2024/03/22 06:26:51;;;;;;;4.72;2.13;;;12.40;68.20;;;;;;5050233;28;20090;-70
2024/03/22 06:29:17;;;;;;;3.17;1.48;;;12.40;68.30;;;;;;5050019;28;20025;-70
2024/03/22 06:31:43;;;;;;;0.70;0.57;;;12.50;68.30;;;;;;5050577;28;20033;-70
2024/03/22 06:34:09;;;;;;;;;;;12.50;68.00;;;;;;5050374;28;20060;-76
2024/03/22 06:36:35;;;;;;;1.50;1.13;;;12.60;68.00;;;;;;5049947;28;19912;-70
2024/03/22 06:39:04;;;;;;;;;;;12.70;67.50;;;;;;5050351;28;20056;-75
2024/03/22 06:41:30;;;;;;;10.25;6.20;;;12.70;67.80;;;;;;5049231;28;19917;-76
2024/03/22 06:43:56;;;;;;;7.15;2.22;;;12.80;67.20;;;;;;5049699;28;20402;-69
2024/03/22 06:46:22;;;;;;;0.45;0.40;;;12.90;67.40;;;;;;5049614;28;20033;-76
2024/03/22 06:48:48;;;;;;;6.95;2.25;;;13.00;66.70;;;;;;5049648;28;20055;-76
2024/03/22 06:51:14;;;;;;;2.63;1.65;;;13.10;66.90;;;;;;5049265;28;20119;-69
2024/03/22 06:53:40;;;;;;;5.25;2.88;;;13.10;67.10;;;;;;5049818;28;20024;-76
2024/03/22 06:56:08;;;;;;;6.18;1.67;;;13.20;67.20;;;;;;5049598;28;20098;-69
2024/03/22 06:58:53;;;;;;;4.18;3.08;;;13.20;67.80;;;;;;5049643;28;20053;-70
2024/03/22 07:01:20;;;;;;;1.60;1.40;;;13.30;67.70;;;;;;5050358;28;20124;-75
2024/03/22 07:03:47;;;;;;;2.95;1.65;;;13.40;67.20;;;;;;5050934;28;20052;-75
2024/03/22 07:06:15;;;;;;;4.00;1.20;;;13.50;66.50;;;;;;5049550;28;20040;-70
2024/03/22 07:08:41;;;;;;;1.83;1.15;;;13.60;66.30;;;;;;5050672;28;20449;-70
2024/03/22 07:11:08;;;;;;;5.53;3.92;;;13.60;66.90;;;;;;5050311;28;20036;-75
2024/03/22 07:13:34;;;;;;;2.42;1.60;;;13.70;66.70;;;;;;5050888;28;20380;-76
2024/03/22 07:16:00;;;;;;;;;;;13.80;66.00;;;;;;5050063;28;20039;-70
2024/03/22 07:18:26;;;;;;;5.05;1.25;;;13.80;66.60;;;;;;5049647;28;19916;-76
2024/03/22 07:20:52;;;;;;;2.40;1.30;;;13.90;66.50;;;;;;5045729;28;20551;-75
2024/03/22 07:23:18;;;;;;;1.55;0.88;;;14.10;66.60;;;;;;5063992;28;20029;-70
2024/03/22 07:25:45;;;;;;;1.25;0.47;;;14.20;66.60;;;;;;5070583;28;20642;-75
2024/03/22 07:28:12;;;;;;;1.00;0.57;;;14.20;65.50;;;;;;5075066;28;20041;-70
2024/03/22 07:30:38;;;;;;;1.63;1.13;;;14.30;64.50;;;;;;5073767;28;20032;-71
2024/03/22 07:33:04;;;;;;;1.88;1.42;;;14.50;64.80;;;;;;5074923;28;20256;-70
2024/03/22 07:35:30;;;;;;;;;;;14.70;64.20;;;;;;5074835;28;20094;-75
2024/03/22 07:37:58;;;;;;;1.55;1.10;;;14.70;64.10;;;;;;5071586;28;20335;-75
2024/03/22 07:40:24;;;;;;;1.02;0.57;;;14.90;63.50;;;;;;5068999;28;20045;-76
2024/03/22 07:42:50;;;;;;;1.27;0.70;;;15.10;63.00;;;;;;5058502;28;20036;-75
2024/03/22 07:45:16;;;;;;;0.85;0.55;;;15.30;62.70;;;;;;5074253;28;20393;-70
2024/03/22 07:47:43;;;;;;;1.40;0.68;;;15.50;61.90;;;;;;5074269;28;20052;-76
2024/03/22 07:50:10;;;;;;;1.88;0.85;;;15.70;60.90;;;;;;5071422;28;20544;-70
2024/03/22 07:52:36;;;;;;;2.30;1.08;;;15.80;59.80;;;;;;5054336;28;20052;-70
2024/03/22 07:55:02;;;;;;;2.45;1.58;;;16.00;60.10;;;;;;5052619;28;20025;-70
2024/03/22 08:00:14;;;;;;;0.50;0.50;;;16.10;59.50;;;;;;5054023;28;20036;-75
2024/03/22 08:02:41;;;;;;;1.55;0.75;;;16.20;59.20;;;;;;5074288;28;20067;-70
2024/03/22 08:05:08;;;;;;;1.88;1.10;;;16.10;58.80;;;;;;5072481;28;20028;-70
2024/03/22 08:07:34;;;;;;;1.30;0.70;;;16.30;59.10;;;;;;5074038;28;20469;-76
2024/03/22 08:10:01;;;;;;;1.08;0.63;;;16.40;59.60;;;;;;5073766;28;20037;-74
2024/03/22 08:12:28;;;;;;;0.95;0.50;;;16.50;59.40;;;;;;5071894;28;20551;-70
2024/03/22 08:14:55;;;;;;;0.85;0.43;;;16.70;58.80;;;;;;5072362;28;20437;-76
2024/03/22 08:17:21;;;;;;;0.68;0.47;;;17.30;58.30;;;;;;5072503;28;20024;-75
2024/03/22 08:19:47;;;;;;;2.15;1.33;;;17.70;55.10;;;;;;5063038;28;20029;-70
2024/03/22 08:22:13;;;;;;;1.05;0.73;;;17.80;54.20;;;;;;5053471;28;20039;-76
2024/03/22 08:24:40;;;;;;;0.20;0.20;;;17.90;54.50;;;;;;5053487;28;20132;-70
2024/03/22 08:27:06;;;;;;;;;;;18.20;52.90;;;;;;5054238;28;20040;-70
2024/03/22 08:29:32;;;;;;;0.20;0.20;;;18.30;53.40;;;;;;5051934;28;20423;-70
2024/03/22 08:31:58;;;;;;;1.50;1.02;;;18.50;52.70;;;;;;5053334;28;20033;-75
2024/03/22 08:34:24;;;;;;;0.30;0.30;;;18.70;51.50;;;;;;5053279;28;20537;-76
2024/03/22 08:36:50;;;;;;;0.60;0.30;;;18.90;50.90;;;;;;5068435;28;20029;-76
2024/03/22 08:39:16;;;;;;;0.30;0.30;;;19.00;49.10;;;;;;5052119;28;20033;-76
2024/03/22 08:41:42;;;;;;;0.95;0.57;;;19.20;49.10;;;;;;5052685;28;20029;-76
2024/03/22 08:44:08;;;;;;;0.60;0.45;;;19.50;47.20;;;;;;5065910;28;20150;-70
2024/03/22 08:46:35;;;;;;;0.35;0.32;;;19.70;46.90;;;;;;5066522;28;20035;-76
2024/03/22 08:49:02;;;;;;;0.73;0.45;;;19.50;45.90;;;;;;5051895;28;20032;-70
2024/03/22 08:51:28;;;;;;;1.10;0.73;;;19.70;45.50;;;;;;5052515;28;20033;-69
2024/03/22 08:53:55;;;;;;;0.75;0.40;;;20.00;45.70;;;;;;5052910;28;20044;-69
2024/03/22 08:56:21;;;;;;;0.80;0.80;;;20.40;44.20;;;;;;5051606;28;20041;-70
2024/03/22 08:58:47;;;;;;;0.68;0.30;;;20.70;41.70;;;;;;5052815;28;20041;-70
2024/03/22 09:01:13;;;;;;;1.85;0.65;;;20.70;41.70;;;;;;5052513;28;20041;-74
2024/03/22 09:03:40;;;;;;;0.20;0.20;;;21.00;39.90;;;;;;5072151;28;20059;-76
2024/03/22 09:06:06;;;;;;;0.38;0.38;;;21.90;39.10;;;;;;5052642;28;20098;-76
2024/03/22 09:08:33;;;;;;;1.65;1.38;;;22.70;36.60;;;;;;5053057;28;20253;-69
2024/03/22 09:10:59;;;;;;;0.70;0.40;;;22.90;37.20;;;;;;5052172;28;20111;-70
2024/03/22 09:13:25;;;;;;;;;;;24.00;36.00;;;;;;5053443;28;20041;-75
2024/03/22 09:16:15;;;;;;;2.05;0.95;;;24.90;33.60;;;;;;5051383;28;19913;-75
2024/03/22 09:18:41;;;;;;;0.38;0.30;;;24.70;32.40;;;;;;5051179;28;20060;-76
2024/03/22 09:21:10;;;;;;;;;;;25.30;31.20;;;;;;5054292;28;20040;-77
2024/03/22 09:23:36;;;;;;;4.13;1.58;;;26.40;30.40;;;;;;5072739;28;19924;-70
2024/03/22 09:26:02;;;;;;;0.63;0.40;;;27.00;28.00;;;;;;5071045;28;20039;-76
2024/03/22 09:28:28;;;;;;;0.50;0.50;;;27.20;27.60;;;;;;5072746;28;20052;-70
2024/03/22 09:30:54;;;;;;;0.20;0.20;;;27.30;27.40;;;;;;5070526;28;20114;-76
2024/03/22 09:33:20;;;;;;;3.03;0.82;;;27.20;26.90;;;;;;5072603;28;20614;-76
2024/03/22 09:35:46;;;;;;;0.28;0.28;;;26.70;27.20;;;;;;5072400;28;20036;-70
2024/03/22 09:38:12;;;;;;;0.30;0.30;;;26.40;27.80;;;;;;5070857;28;20029;-76
2024/03/22 09:40:41;;;;;;;0.43;0.38;;;26.20;28.00;;;;;;5071505;28;20041;-75
2024/03/22 09:43:09;;;;;;;0.65;0.40;;;26.60;27.10;;;;;;5070784;28;20083;-76
2024/03/22 09:45:36;;;;;;;1.92;0.43;;;28.00;26.10;;;;;;5070756;28;20436;-70
2024/03/22 09:48:02;;;;;;;0.22;0.22;;;29.30;24.00;;;;;;5070241;28;20039;-76
2024/03/22 09:50:29;;;;;;;0.30;0.30;;;29.60;22.80;;;;;;5053170;28;20040;-76
2024/03/22 09:52:57;;;;;;;2.13;0.60;;;29.80;21.20;;;;;;5070578;28;20032;-76
2024/03/22 09:55:24;;;;;;;0.55;0.47;;;30.90;19.70;;;;;;5070214;28;20514;-76
2024/03/22 09:57:53;;;;;;;0.13;0.13;;;31.70;19.30;;;;;;5070525;28;20114;-70
2024/03/22 10:00:21;;;;;;;0.22;0.22;;;32.10;18.40;;;;;;5069900;28;20029;-71
2024/03/22 10:02:49;;;;;;;0.85;0.50;;;32.40;17.70;;;;;;5070604;28;20123;-75
2024/03/22 10:05:17;;;;;;;0.82;0.68;;;33.10;16.70;;;;;;5070255;28;20494;-75
2024/03/22 10:07:44;;;;;;;0.68;0.55;;;33.60;17.20;;;;;;5070426;28;20067;-71
2024/03/22 10:10:10;;;;;;;0.20;0.20;;;34.10;14.60;;;;;;5069691;28;20455;-76
2024/03/22 10:12:37;;;;;;;0.20;0.20;;;34.60;14.30;;;;;;5070140;28;20110;-71
2024/03/22 10:15:05;;;;;;;1.73;0.73;;;34.60;15.40;;;;;;5058443;28;20506;-71
2024/03/22 10:17:31;;;;;;;0.43;0.43;;;34.50;14.80;;;;;;5051496;28;20040;-75
2024/03/22 10:19:57;;;;;;;0.52;0.40;;;34.40;15.00;;;;;;5060692;28;20036;-75
2024/03/22 10:22:24;;;;;;;0.30;0.30;;;34.30;15.20;;;;;;5051571;28;20041;-75
2024/03/22 10:24:51;;;;;;;0.38;0.30;;;35.40;14.90;;;;;;5051287;28;20037;-75
2024/03/22 10:27:18;;;;;;;5.28;1.08;;;35.90;13.60;;;;;;5049879;28;20039;-71
2024/03/22 10:29:45;;;;;;;1.00;0.68;;;36.30;13.80;;;;;;5033947;28;20079;-75
2024/03/22 10:32:12;;;;;;;1.02;0.60;;;36.80;13.30;;;;;;5048523;28;20037;-75
2024/03/22 10:34:39;;;;;;;0.30;0.30;;;37.70;13.40;;;;;;5049898;28;20497;-71
2024/03/22 10:37:06;;;;;;;0.45;0.45;;;38.10;12.50;;;;;;5049857;28;20037;-71
2024/03/22 10:39:33;;;;;;;0.32;0.32;;;38.10;11.60;;;;;;5066416;28;20112;-71
2024/03/22 10:41:59;;;;;;;0.63;0.50;;;37.90;11.10;;;;;;5065929;28;20414;-75
2024/03/22 10:44:25;;;;;;;1.13;0.70;;;37.80;11.50;;;;;;5050976;28;20025;-71
2024/03/22 10:46:56;;;;;;;0.40;0.40;;;38.10;12.10;;;;;;5050845;28;20053;-71
2024/03/22 10:49:22;;;;;;;0.95;0.70;;;38.20;11.80;;;;;;5049709;28;20025;-71
2024/03/22 10:52:09;;;;;;;2.35;0.90;;;38.60;12.10;;;;;;5032639;28;20444;-71
2024/03/22 10:54:40;;;;;;;1.13;0.82;;;38.80;10.90;;;;;;5049640;28;20032;-75
2024/03/22 10:57:12;;;;;;;2.03;1.38;;;38.70;10.70;;;;;;5049247;28;20359;-75
2024/03/22 10:59:41;;;;;;;2.20;1.83;;;38.70;11.40;;;;;;5049521;28;20121;-71
2024/03/22 11:02:11;;;;;;;0.98;0.65;;;39.50;11.00;;;;;;5048843;28;20035;-71
2024/03/22 11:04:37;;;;;;;0.40;0.40;;;39.80;10.20;;;;;;5051168;28;20025;-71
2024/03/22 11:07:03;;;;;;;0.40;0.40;;;39.80;9.90;;;;;;5049532;28;20071;-71
2024/03/22 11:09:30;;;;;;;0.57;0.50;;;40.00;10.10;;;;;;5066286;28;20060;-71
2024/03/22 11:14:41;;;;;;;0.63;0.60;;;39.90;10.30;;;;;;5069661;28;20059;-72
2024/03/22 11:17:07;;;;;;;0.68;0.68;;;40.00;10.30;;;;;;5070793;28;20036;-71
2024/03/22 11:19:33;;;;;;;1.15;0.80;;;40.50;9.50;;;;;;5063731;28;20025;-71
2024/03/22 11:21:59;;;;;;;2.22;0.90;;;40.70;9.20;;;;;;5049011;28;20540;-71
2024/03/22 11:24:25;;;;;;;0.95;0.60;;;40.50;9.20;;;;;;5049080;28;20041;-75
2024/03/22 11:26:53;;;;;;;0.57;0.50;;;40.50;9.90;;;;;;5050741;28;20466;-75
2024/03/22 11:29:19;;;;;;;0.77;0.70;;;40.80;9.10;;;;;;5066193;28;20478;-75
2024/03/22 11:31:45;;;;;;;0.50;0.50;;;40.30;9.80;;;;;;5054077;28;20042;-71
2024/03/22 11:34:11;;;;;;;0.52;0.52;;;39.00;10.30;;;;;;5049294;28;20026;-75
2024/03/22 11:36:37;;;;;;;1.77;0.80;;;37.80;11.20;;;;;;5049190;28;20044;-75
2024/03/22 11:39:03;;;;;;;0.60;0.60;;;36.40;12.20;;;;;;5050474;28;20039;-71
2024/03/22 11:41:31;;;;;;;1.00;0.80;;;35.30;13.10;;;;;;5061906;28;20033;-75
2024/03/22 11:43:59;;;;;;;1.35;0.82;;;35.30;13.50;;;;;;5070396;28;20121;-71
2024/03/22 11:46:25;;;;;;;1.42;0.70;;;37.90;11.60;;;;;;5052494;28;20090;-76
2024/03/22 11:49:11;;;;;;;1.52;0.75;;;38.90;10.60;;;;;;5069237;28;20456;-75
2024/03/22 11:51:38;;;;;;;0.60;0.60;;;39.10;10.70;;;;;;5068706;28;20037;-75
2024/03/22 11:54:04;;;;;;;0.73;0.63;;;40.60;9.90;;;;;;5059275;28;20072;-75
2024/03/22 11:56:31;;;;;;;0.70;0.70;;;41.60;9.10;;;;;;5050254;28;20067;-71
2024/03/22 11:59:20;;;;;;;0.40;0.40;;;41.90;8.70;;;;;;5065704;28;20040;-72
2024/03/22 12:01:46;;;;;;;0.82;0.60;;;40.50;9.80;;;;;;5048614;28;20063;-71
2024/03/22 12:04:15;;;;;;;0.35;0.32;;;40.40;10.20;;;;;;5048962;28;20044;-72
2024/03/22 12:07:00;;;;;;;0.60;0.60;;;40.90;9.60;;;;;;5049093;28;20033;-76
2024/03/22 12:09:26;;;;;;;0.50;0.50;;;40.80;9.50;;;;;;5051619;28;20037;-76
2024/03/22 12:11:55;;;;;;;0.47;0.47;;;42.30;9.20;;;;;;5053050;28;20091;-75
2024/03/22 12:14:21;;;;;;;0.88;0.77;;;43.60;7.80;;;;;;5052436;28;20029;-71
2024/03/22 12:16:47;;;;;;;0.55;0.52;;;43.90;8.00;;;;;;5053624;28;20037;-71
2024/03/22 12:19:13;;;;;;;0.60;0.60;;;42.20;8.60;;;;;;5040296;28;20039;-75
2024/03/22 12:21:39;;;;;;;1.20;0.55;;;39.80;9.90;;;;;;5058696;28;20037;-75
2024/03/22 12:24:05;;;;;;;0.60;0.60;;;39.90;10.20;;;;;;5053749;28;20029;-71
2024/03/22 12:26:31;;;;;;;0.40;0.40;;;40.30;9.70;;;;;;5035238;28;20028;-74
2024/03/22 12:28:58;;;;;;;0.52;0.50;;;40.10;10.80;;;;;;5053259;28;20025;-75
2024/03/22 12:31:24;;;;;;;0.45;0.40;;;40.10;9.10;;;;;;5062456;28;20032;-75
2024/03/22 12:33:50;;;;;;;0.70;0.70;;;40.30;10.00;;;;;;5072169;28;20025;-72
2024/03/22 12:36:16;;;;;;;1.50;0.90;;;39.90;9.70;;;;;;5072059;28;20029;-76
2024/03/22 12:38:42;;;;;;;1.30;0.90;;;39.70;10.60;;;;;;5073085;28;20420;-71
2024/03/22 12:41:08;;;;;;;0.40;0.40;;;40.00;10.00;;;;;;5072805;28;20033;-71
2024/03/22 12:43:34;;;;;;;0.45;0.45;;;40.40;9.30;;;;;;5073455;28;20101;-75
2024/03/22 12:46:00;;;;;;;0.65;0.50;;;41.10;9.90;;;;;;5072720;28;20036;-71
2024/03/22 12:48:26;;;;;;;1.15;0.70;;;42.40;8.40;;;;;;5072174;28;20040;-71
2024/03/22 12:50:53;;;;;;;1.15;0.70;;;43.80;7.50;;;;;;5071357;28;20040;-71
2024/03/22 12:53:19;;;;;;;0.40;0.40;;;44.10;8.20;;;;;;5072076;28;20490;-75
2024/03/22 12:55:45;;;;;;;0.63;0.63;;;44.30;8.00;;;;;;5073006;28;20039;-71
2024/03/22 12:58:11;;;;;;;0.50;0.50;;;44.60;6.60;;;;;;5073062;28;20417;-71